sensor_id;sensor_type;location;lat;lon;timestamp;P1;durP1;ratioP1;P2;durP2;ratioP2
20629;SDS011;17386;43.846;25.950;2022-08-14T00:01:07;19.17;;;12.27;;
20629;SDS011;17386;43.846;25.950;2022-08-14T00:03:33;18.58;;;13.07;;
20629;SDS011;17386;43.846;25.950;2022-08-14T00:05:59;16.85;;;11.98;;
20629;SDS011;17386;43.846;25.950;2022-08-14T00:08:25;18.23;;;12.48;;
20629;SDS011;17386;43.846;25.950;2022-08-14T00:10:51;18.98;;;12.40;;
20629;SDS011;17386;43.846;25.950;2022-08-14T00:13:18;18.70;;;12.48;;
20629;SDS011;17386;43.846;25.950;2022-08-14T00:15:45;18.63;;;11.98;;
20629;SDS011;17386;43.846;25.950;2022-08-14T00:18:16;18.80;;;12.15;;
20629;SDS011;17386;43.846;25.950;2022-08-14T00:20:43;17.05;;;11.45;;
20629;SDS011;17386;43.846;25.950;2022-08-14T00:23:10;20.00;;;12.95;;
20629;SDS011;17386;43.846;25.950;2022-08-14T00:25:37;17.92;;;12.25;;
20629;SDS011;17386;43.846;25.950;2022-08-14T00:28:03;16.58;;;11.45;;
20629;SDS011;17386;43.846;25.950;2022-08-14T00:30:31;15.38;;;10.02;;
20629;SDS011;17386;43.846;25.950;2022-08-14T00:32:57;16.77;;;9.40;;
20629;SDS011;17386;43.846;25.950;2022-08-14T00:35:22;14.55;;;9.50;;
20629;SDS011;17386;43.846;25.950;2022-08-14T00:37:48;13.52;;;9.63;;
20629;SDS011;17386;43.846;25.950;2022-08-14T00:40:14;13.52;;;9.32;;
20629;SDS011;17386;43.846;25.950;2022-08-14T00:42:41;14.13;;;9.02;;
20629;SDS011;17386;43.846;25.950;2022-08-14T00:45:08;13.20;;;8.65;;
20629;SDS011;17386;43.846;25.950;2022-08-14T00:47:35;15.43;;;9.48;;
20629;SDS011;17386;43.846;25.950;2022-08-14T00:50:04;15.52;;;8.98;;
20629;SDS011;17386;43.846;25.950;2022-08-14T00:52:31;14.32;;;9.80;;
20629;SDS011;17386;43.846;25.950;2022-08-14T00:54:57;17.83;;;9.52;;
20629;SDS011;17386;43.846;25.950;2022-08-14T00:57:24;13.52;;;10.20;;
20629;SDS011;17386;43.846;25.950;2022-08-14T00:59:55;17.58;;;9.88;;
20629;SDS011;17386;43.846;25.950;2022-08-14T01:02:21;15.93;;;9.02;;
20629;SDS011;17386;43.846;25.950;2022-08-14T01:04:49;13.27;;;9.30;;
20629;SDS011;17386;43.846;25.950;2022-08-14T01:07:15;14.35;;;9.38;;
20629;SDS011;17386;43.846;25.950;2022-08-14T01:09:45;13.00;;;9.68;;
20629;SDS011;17386;43.846;25.950;2022-08-14T01:12:23;18.20;;;10.35;;
20629;SDS011;17386;43.846;25.950;2022-08-14T01:14:49;12.75;;;9.57;;
20629;SDS011;17386;43.846;25.950;2022-08-14T01:17:17;16.20;;;9.30;;
20629;SDS011;17386;43.846;25.950;2022-08-14T01:19:42;15.43;;;10.23;;
20629;SDS011;17386;43.846;25.950;2022-08-14T01:22:26;15.20;;;9.85;;
20629;SDS011;17386;43.846;25.950;2022-08-14T01:24:52;15.40;;;9.25;;
20629;SDS011;17386;43.846;25.950;2022-08-14T01:27:18;13.60;;;10.00;;
20629;SDS011;17386;43.846;25.950;2022-08-14T01:29:46;13.43;;;8.85;;
20629;SDS011;17386;43.846;25.950;2022-08-14T01:32:15;12.93;;;9.07;;
20629;SDS011;17386;43.846;25.950;2022-08-14T01:34:42;12.55;;;9.20;;
20629;SDS011;17386;43.846;25.950;2022-08-14T01:37:11;12.18;;;8.23;;
20629;SDS011;17386;43.846;25.950;2022-08-14T01:39:36;15.43;;;9.25;;
20629;SDS011;17386;43.846;25.950;2022-08-14T01:42:02;10.95;;;8.00;;
20629;SDS011;17386;43.846;25.950;2022-08-14T01:44:29;10.10;;;7.95;;
20629;SDS011;17386;43.846;25.950;2022-08-14T01:46:56;11.65;;;8.75;;
20629;SDS011;17386;43.846;25.950;2022-08-14T01:49:23;11.80;;;8.32;;
20629;SDS011;17386;43.846;25.950;2022-08-14T01:51:50;12.95;;;8.05;;
20629;SDS011;17386;43.846;25.950;2022-08-14T01:54:20;11.45;;;7.97;;
20629;SDS011;17386;43.846;25.950;2022-08-14T01:59:22;11.25;;;7.93;;
20629;SDS011;17386;43.846;25.950;2022-08-14T02:01:51;13.38;;;7.60;;
20629;SDS011;17386;43.846;25.950;2022-08-14T02:04:18;11.15;;;7.97;;
20629;SDS011;17386;43.846;25.950;2022-08-14T02:06:45;13.02;;;8.45;;
20629;SDS011;17386;43.846;25.950;2022-08-14T02:09:15;9.55;;;7.60;;
20629;SDS011;17386;43.846;25.950;2022-08-14T02:11:40;12.00;;;7.97;;
20629;SDS011;17386;43.846;25.950;2022-08-14T02:14:07;11.57;;;7.47;;
20629;SDS011;17386;43.846;25.950;2022-08-14T02:16:35;11.07;;;7.60;;
20629;SDS011;17386;43.846;25.950;2022-08-14T02:19:15;10.27;;;7.57;;
20629;SDS011;17386;43.846;25.950;2022-08-14T02:21:44;11.70;;;7.10;;
20629;SDS011;17386;43.846;25.950;2022-08-14T02:24:11;10.63;;;7.32;;
20629;SDS011;17386;43.846;25.950;2022-08-14T02:26:38;12.60;;;7.82;;
20629;SDS011;17386;43.846;25.950;2022-08-14T02:29:09;10.88;;;7.82;;
20629;SDS011;17386;43.846;25.950;2022-08-14T02:31:38;9.75;;;7.57;;
20629;SDS011;17386;43.846;25.950;2022-08-14T02:34:09;11.85;;;7.78;;
20629;SDS011;17386;43.846;25.950;2022-08-14T02:36:38;11.27;;;7.82;;
20629;SDS011;17386;43.846;25.950;2022-08-14T02:39:05;11.52;;;7.53;;
20629;SDS011;17386;43.846;25.950;2022-08-14T02:41:34;12.48;;;8.00;;
20629;SDS011;17386;43.846;25.950;2022-08-14T02:44:01;11.85;;;7.20;;
20629;SDS011;17386;43.846;25.950;2022-08-14T02:46:28;11.27;;;7.97;;
20629;SDS011;17386;43.846;25.950;2022-08-14T02:48:57;12.27;;;7.68;;
20629;SDS011;17386;43.846;25.950;2022-08-14T02:51:23;11.35;;;7.63;;
20629;SDS011;17386;43.846;25.950;2022-08-14T02:53:50;11.95;;;7.88;;
20629;SDS011;17386;43.846;25.950;2022-08-14T02:56:16;11.50;;;7.95;;
20629;SDS011;17386;43.846;25.950;2022-08-14T02:58:44;11.75;;;7.47;;
20629;SDS011;17386;43.846;25.950;2022-08-14T03:01:14;11.70;;;8.18;;
20629;SDS011;17386;43.846;25.950;2022-08-14T03:03:41;11.18;;;7.43;;
20629;SDS011;17386;43.846;25.950;2022-08-14T03:06:08;10.52;;;7.50;;
20629;SDS011;17386;43.846;25.950;2022-08-14T03:08:36;10.35;;;6.85;;
20629;SDS011;17386;43.846;25.950;2022-08-14T03:11:03;11.63;;;7.13;;
20629;SDS011;17386;43.846;25.950;2022-08-14T03:13:37;10.20;;;8.05;;
20629;SDS011;17386;43.846;25.950;2022-08-14T03:16:09;10.30;;;7.70;;
20629;SDS011;17386;43.846;25.950;2022-08-14T03:18:38;11.50;;;7.75;;
20629;SDS011;17386;43.846;25.950;2022-08-14T03:21:10;13.82;;;8.02;;
20629;SDS011;17386;43.846;25.950;2022-08-14T03:23:39;10.45;;;7.68;;
20629;SDS011;17386;43.846;25.950;2022-08-14T03:26:06;12.95;;;7.80;;
20629;SDS011;17386;43.846;25.950;2022-08-14T03:28:34;10.48;;;7.47;;
20629;SDS011;17386;43.846;25.950;2022-08-14T03:31:04;13.50;;;7.85;;
20629;SDS011;17386;43.846;25.950;2022-08-14T03:33:30;13.38;;;8.15;;
20629;SDS011;17386;43.846;25.950;2022-08-14T03:35:56;11.20;;;7.88;;
20629;SDS011;17386;43.846;25.950;2022-08-14T03:38:21;10.90;;;7.60;;
20629;SDS011;17386;43.846;25.950;2022-08-14T03:40:47;10.32;;;7.22;;
20629;SDS011;17386;43.846;25.950;2022-08-14T03:45:40;11.57;;;7.32;;
20629;SDS011;17386;43.846;25.950;2022-08-14T03:48:10;10.93;;;7.45;;
20629;SDS011;17386;43.846;25.950;2022-08-14T03:50:43;11.68;;;7.90;;
20629;SDS011;17386;43.846;25.950;2022-08-14T03:53:13;11.77;;;8.13;;
20629;SDS011;17386;43.846;25.950;2022-08-14T03:55:40;11.32;;;7.82;;
20629;SDS011;17386;43.846;25.950;2022-08-14T03:58:06;10.65;;;7.88;;
20629;SDS011;17386;43.846;25.950;2022-08-14T04:00:33;10.32;;;8.35;;
20629;SDS011;17386;43.846;25.950;2022-08-14T04:03:00;12.00;;;7.90;;
20629;SDS011;17386;43.846;25.950;2022-08-14T04:05:26;11.43;;;7.55;;
20629;SDS011;17386;43.846;25.950;2022-08-14T04:07:51;12.02;;;8.30;;
20629;SDS011;17386;43.846;25.950;2022-08-14T04:10:17;9.85;;;7.07;;
20629;SDS011;17386;43.846;25.950;2022-08-14T04:12:42;11.93;;;7.78;;
20629;SDS011;17386;43.846;25.950;2022-08-14T04:15:08;15.80;;;8.82;;
20629;SDS011;17386;43.846;25.950;2022-08-14T04:17:34;14.02;;;8.25;;
20629;SDS011;17386;43.846;25.950;2022-08-14T04:20:00;10.38;;;7.38;;
20629;SDS011;17386;43.846;25.950;2022-08-14T04:22:28;12.77;;;7.50;;
20629;SDS011;17386;43.846;25.950;2022-08-14T04:24:56;10.70;;;7.35;;
20629;SDS011;17386;43.846;25.950;2022-08-14T04:27:22;11.05;;;7.70;;
20629;SDS011;17386;43.846;25.950;2022-08-14T04:29:48;10.15;;;7.63;;
20629;SDS011;17386;43.846;25.950;2022-08-14T04:32:13;11.32;;;7.80;;
20629;SDS011;17386;43.846;25.950;2022-08-14T04:34:39;11.00;;;8.23;;
20629;SDS011;17386;43.846;25.950;2022-08-14T04:37:05;12.77;;;8.45;;
20629;SDS011;17386;43.846;25.950;2022-08-14T04:39:50;12.98;;;8.43;;
20629;SDS011;17386;43.846;25.950;2022-08-14T04:42:35;12.95;;;8.23;;
20629;SDS011;17386;43.846;25.950;2022-08-14T04:45:20;12.70;;;8.02;;
20629;SDS011;17386;43.846;25.950;2022-08-14T04:47:47;12.18;;;8.55;;
20629;SDS011;17386;43.846;25.950;2022-08-14T04:50:32;13.85;;;8.15;;
20629;SDS011;17386;43.846;25.950;2022-08-14T04:52:59;12.43;;;8.70;;
20629;SDS011;17386;43.846;25.950;2022-08-14T04:55:26;11.00;;;8.43;;
20629;SDS011;17386;43.846;25.950;2022-08-14T04:57:51;11.45;;;8.50;;
20629;SDS011;17386;43.846;25.950;2022-08-14T05:00:17;14.55;;;8.85;;
20629;SDS011;17386;43.846;25.950;2022-08-14T05:02:42;11.20;;;8.20;;
20629;SDS011;17386;43.846;25.950;2022-08-14T05:05:08;15.32;;;8.95;;
20629;SDS011;17386;43.846;25.950;2022-08-14T05:07:33;12.98;;;9.25;;
20629;SDS011;17386;43.846;25.950;2022-08-14T05:09:58;14.45;;;8.90;;
20629;SDS011;17386;43.846;25.950;2022-08-14T05:12:24;13.05;;;8.85;;
20629;SDS011;17386;43.846;25.950;2022-08-14T05:14:49;15.15;;;8.77;;
20629;SDS011;17386;43.846;25.950;2022-08-14T05:17:15;12.20;;;8.45;;
20629;SDS011;17386;43.846;25.950;2022-08-14T05:19:40;13.15;;;7.80;;
20629;SDS011;17386;43.846;25.950;2022-08-14T05:22:06;12.85;;;9.10;;
20629;SDS011;17386;43.846;25.950;2022-08-14T05:24:31;12.32;;;8.57;;
20629;SDS011;17386;43.846;25.950;2022-08-14T05:26:57;14.43;;;8.82;;
20629;SDS011;17386;43.846;25.950;2022-08-14T05:29:25;16.23;;;9.45;;
20629;SDS011;17386;43.846;25.950;2022-08-14T05:31:50;12.70;;;9.60;;
20629;SDS011;17386;43.846;25.950;2022-08-14T05:34:20;13.73;;;9.00;;
20629;SDS011;17386;43.846;25.950;2022-08-14T05:36:47;14.77;;;9.60;;
20629;SDS011;17386;43.846;25.950;2022-08-14T05:39:13;14.68;;;8.75;;
20629;SDS011;17386;43.846;25.950;2022-08-14T05:41:38;13.63;;;9.77;;
20629;SDS011;17386;43.846;25.950;2022-08-14T05:44:04;22.88;;;9.73;;
20629;SDS011;17386;43.846;25.950;2022-08-14T05:46:30;14.82;;;9.98;;
20629;SDS011;17386;43.846;25.950;2022-08-14T05:48:56;13.98;;;9.43;;
20629;SDS011;17386;43.846;25.950;2022-08-14T05:51:23;79.03;;;15.60;;
20629;SDS011;17386;43.846;25.950;2022-08-14T05:53:49;14.63;;;9.65;;
20629;SDS011;17386;43.846;25.950;2022-08-14T05:56:14;15.43;;;9.95;;
20629;SDS011;17386;43.846;25.950;2022-08-14T05:58:40;13.98;;;9.93;;
20629;SDS011;17386;43.846;25.950;2022-08-14T06:01:06;15.02;;;10.07;;
20629;SDS011;17386;43.846;25.950;2022-08-14T06:03:33;21.83;;;14.38;;
20629;SDS011;17386;43.846;25.950;2022-08-14T06:06:00;14.07;;;10.50;;
20629;SDS011;17386;43.846;25.950;2022-08-14T06:08:27;18.02;;;12.38;;
20629;SDS011;17386;43.846;25.950;2022-08-14T06:10:58;15.85;;;10.05;;
20629;SDS011;17386;43.846;25.950;2022-08-14T06:13:28;14.57;;;10.05;;
20629;SDS011;17386;43.846;25.950;2022-08-14T06:15:54;12.90;;;10.07;;
20629;SDS011;17386;43.846;25.950;2022-08-14T06:18:19;18.20;;;10.60;;
20629;SDS011;17386;43.846;25.950;2022-08-14T06:20:45;15.10;;;9.63;;
20629;SDS011;17386;43.846;25.950;2022-08-14T06:23:10;17.88;;;10.18;;
20629;SDS011;17386;43.846;25.950;2022-08-14T06:25:36;15.35;;;10.07;;
20629;SDS011;17386;43.846;25.950;2022-08-14T06:28:02;16.65;;;10.70;;
20629;SDS011;17386;43.846;25.950;2022-08-14T06:30:28;18.23;;;10.32;;
20629;SDS011;17386;43.846;25.950;2022-08-14T06:32:56;17.27;;;10.57;;
20629;SDS011;17386;43.846;25.950;2022-08-14T06:35:22;17.40;;;10.57;;
20629;SDS011;17386;43.846;25.950;2022-08-14T06:40:15;16.30;;;11.00;;
20629;SDS011;17386;43.846;25.950;2022-08-14T06:42:42;16.52;;;10.48;;
20629;SDS011;17386;43.846;25.950;2022-08-14T06:45:08;18.85;;;10.73;;
20629;SDS011;17386;43.846;25.950;2022-08-14T06:47:34;15.30;;;9.05;;
20629;SDS011;17386;43.846;25.950;2022-08-14T06:52:30;16.05;;;10.07;;
20629;SDS011;17386;43.846;25.950;2022-08-14T06:54:57;21.67;;;12.25;;
20629;SDS011;17386;43.846;25.950;2022-08-14T06:57:23;17.15;;;10.18;;
20629;SDS011;17386;43.846;25.950;2022-08-14T06:59:49;18.02;;;11.35;;
20629;SDS011;17386;43.846;25.950;2022-08-14T07:02:15;21.02;;;11.43;;
20629;SDS011;17386;43.846;25.950;2022-08-14T07:05:00;16.92;;;10.43;;
20629;SDS011;17386;43.846;25.950;2022-08-14T07:07:43;19.75;;;11.00;;
20629;SDS011;17386;43.846;25.950;2022-08-14T07:10:10;18.98;;;11.38;;
20629;SDS011;17386;43.846;25.950;2022-08-14T07:12:35;28.30;;;11.35;;
20629;SDS011;17386;43.846;25.950;2022-08-14T07:15:02;20.83;;;11.73;;
20629;SDS011;17386;43.846;25.950;2022-08-14T07:17:28;24.40;;;12.77;;
20629;SDS011;17386;43.846;25.950;2022-08-14T07:19:54;21.42;;;10.90;;
20629;SDS011;17386;43.846;25.950;2022-08-14T07:22:19;24.92;;;12.88;;
20629;SDS011;17386;43.846;25.950;2022-08-14T07:24:45;26.17;;;12.90;;
20629;SDS011;17386;43.846;25.950;2022-08-14T07:27:11;21.20;;;12.55;;
20629;SDS011;17386;43.846;25.950;2022-08-14T07:29:36;21.70;;;11.98;;
20629;SDS011;17386;43.846;25.950;2022-08-14T07:32:01;18.45;;;10.98;;
20629;SDS011;17386;43.846;25.950;2022-08-14T07:34:27;16.83;;;11.43;;
20629;SDS011;17386;43.846;25.950;2022-08-14T07:36:53;21.55;;;11.80;;
20629;SDS011;17386;43.846;25.950;2022-08-14T07:39:19;20.13;;;11.27;;
20629;SDS011;17386;43.846;25.950;2022-08-14T07:41:45;21.15;;;11.75;;
20629;SDS011;17386;43.846;25.950;2022-08-14T07:44:10;18.40;;;12.80;;
20629;SDS011;17386;43.846;25.950;2022-08-14T07:46:36;20.83;;;12.13;;
20629;SDS011;17386;43.846;25.950;2022-08-14T07:49:02;19.33;;;11.77;;
20629;SDS011;17386;43.846;25.950;2022-08-14T07:51:28;17.63;;;10.98;;
20629;SDS011;17386;43.846;25.950;2022-08-14T07:53:54;17.77;;;11.63;;
20629;SDS011;17386;43.846;25.950;2022-08-14T07:56:19;18.88;;;11.90;;
20629;SDS011;17386;43.846;25.950;2022-08-14T07:58:45;18.20;;;11.02;;
20629;SDS011;17386;43.846;25.950;2022-08-14T08:01:11;19.88;;;11.10;;
20629;SDS011;17386;43.846;25.950;2022-08-14T08:03:38;18.98;;;10.65;;
20629;SDS011;17386;43.846;25.950;2022-08-14T08:06:07;22.70;;;12.80;;
20629;SDS011;17386;43.846;25.950;2022-08-14T08:08:32;16.45;;;11.90;;
20629;SDS011;17386;43.846;25.950;2022-08-14T08:10:58;21.48;;;12.38;;
20629;SDS011;17386;43.846;25.950;2022-08-14T08:13:26;19.40;;;12.15;;
20629;SDS011;17386;43.846;25.950;2022-08-14T08:15:53;21.27;;;13.63;;
20629;SDS011;17386;43.846;25.950;2022-08-14T08:18:20;21.67;;;11.63;;
20629;SDS011;17386;43.846;25.950;2022-08-14T08:20:48;21.63;;;11.52;;
20629;SDS011;17386;43.846;25.950;2022-08-14T08:23:15;22.02;;;12.77;;
20629;SDS011;17386;43.846;25.950;2022-08-14T08:25:43;18.30;;;12.48;;
20629;SDS011;17386;43.846;25.950;2022-08-14T08:28:11;20.02;;;12.02;;
20629;SDS011;17386;43.846;25.950;2022-08-14T08:30:40;18.77;;;11.60;;
20629;SDS011;17386;43.846;25.950;2022-08-14T08:33:27;21.00;;;12.48;;
20629;SDS011;17386;43.846;25.950;2022-08-14T08:36:02;20.52;;;12.43;;
20629;SDS011;17386;43.846;25.950;2022-08-14T08:38:30;23.15;;;12.68;;
20629;SDS011;17386;43.846;25.950;2022-08-14T08:40:56;19.90;;;12.35;;
20629;SDS011;17386;43.846;25.950;2022-08-14T08:43:24;25.05;;;12.98;;
20629;SDS011;17386;43.846;25.950;2022-08-14T08:45:52;23.25;;;12.95;;
20629;SDS011;17386;43.846;25.950;2022-08-14T08:48:20;23.92;;;13.38;;
20629;SDS011;17386;43.846;25.950;2022-08-14T08:50:46;21.08;;;11.95;;
20629;SDS011;17386;43.846;25.950;2022-08-14T08:53:12;19.50;;;12.55;;
20629;SDS011;17386;43.846;25.950;2022-08-14T08:55:41;22.77;;;12.65;;
20629;SDS011;17386;43.846;25.950;2022-08-14T08:58:09;21.05;;;12.13;;
20629;SDS011;17386;43.846;25.950;2022-08-14T09:00:37;16.25;;;12.05;;
20629;SDS011;17386;43.846;25.950;2022-08-14T09:05:48;20.02;;;12.43;;
20629;SDS011;17386;43.846;25.950;2022-08-14T09:08:19;19.92;;;11.77;;
20629;SDS011;17386;43.846;25.950;2022-08-14T09:10:45;19.15;;;12.90;;
20629;SDS011;17386;43.846;25.950;2022-08-14T09:13:12;19.00;;;13.10;;
20629;SDS011;17386;43.846;25.950;2022-08-14T09:15:39;21.63;;;12.27;;
20629;SDS011;17386;43.846;25.950;2022-08-14T09:18:10;20.00;;;11.73;;
20629;SDS011;17386;43.846;25.950;2022-08-14T09:20:38;18.65;;;11.85;;
20629;SDS011;17386;43.846;25.950;2022-08-14T09:23:05;20.38;;;11.93;;
20629;SDS011;17386;43.846;25.950;2022-08-14T09:25:34;16.02;;;10.07;;
20629;SDS011;17386;43.846;25.950;2022-08-14T09:28:01;24.30;;;10.52;;
20629;SDS011;17386;43.846;25.950;2022-08-14T09:30:28;20.45;;;10.20;;
20629;SDS011;17386;43.846;25.950;2022-08-14T09:38:23;9.75;;;5.00;;
20629;SDS011;17386;43.846;25.950;2022-08-14T09:40:59;12.70;;;5.13;;
20629;SDS011;17386;43.846;25.950;2022-08-14T09:47:04;12.52;;;5.00;;
20629;SDS011;17386;43.846;25.950;2022-08-14T09:49:31;9.95;;;4.32;;
20629;SDS011;17386;43.846;25.950;2022-08-14T09:52:30;10.75;;;4.75;;
20629;SDS011;17386;43.846;25.950;2022-08-14T09:54:49;22.00;;;5.40;;
20629;SDS011;17386;43.846;25.950;2022-08-14T09:57:25;13.18;;;5.28;;
20629;SDS011;17386;43.846;25.950;2022-08-14T09:59:52;12.65;;;5.50;;
20629;SDS011;17386;43.846;25.950;2022-08-14T10:02:19;10.98;;;5.60;;
20629;SDS011;17386;43.846;25.950;2022-08-14T10:04:46;11.02;;;5.72;;
20629;SDS011;17386;43.846;25.950;2022-08-14T10:07:33;9.65;;;6.35;;
20629;SDS011;17386;43.846;25.950;2022-08-14T10:10:00;9.60;;;5.90;;
20629;SDS011;17386;43.846;25.950;2022-08-14T10:12:44;13.30;;;6.63;;
20629;SDS011;17386;43.846;25.950;2022-08-14T10:15:13;9.25;;;5.90;;
20629;SDS011;17386;43.846;25.950;2022-08-14T10:17:45;17.13;;;6.45;;
20629;SDS011;17386;43.846;25.950;2022-08-14T10:20:13;9.98;;;6.57;;
20629;SDS011;17386;43.846;25.950;2022-08-14T10:22:39;9.65;;;5.95;;
20629;SDS011;17386;43.846;25.950;2022-08-14T10:25:12;16.23;;;6.97;;
20629;SDS011;17386;43.846;25.950;2022-08-14T10:27:40;10.93;;;5.78;;
20629;SDS011;17386;43.846;25.950;2022-08-14T10:30:16;7.70;;;4.78;;
20629;SDS011;17386;43.846;25.950;2022-08-14T10:32:47;8.02;;;4.82;;
20629;SDS011;17386;43.846;25.950;2022-08-14T10:35:13;8.23;;;5.05;;
20629;SDS011;17386;43.846;25.950;2022-08-14T10:37:46;9.65;;;5.63;;
20629;SDS011;17386;43.846;25.950;2022-08-14T10:40:26;12.50;;;6.05;;
20629;SDS011;17386;43.846;25.950;2022-08-14T10:42:54;11.27;;;6.47;;
20629;SDS011;17386;43.846;25.950;2022-08-14T10:47:55;17.75;;;9.32;;
20629;SDS011;17386;43.846;25.950;2022-08-14T10:50:28;11.32;;;6.85;;
20629;SDS011;17386;43.846;25.950;2022-08-14T10:52:55;12.50;;;8.27;;
20629;SDS011;17386;43.846;25.950;2022-08-14T10:55:29;10.48;;;6.32;;
20629;SDS011;17386;43.846;25.950;2022-08-14T10:57:57;9.68;;;6.70;;
20629;SDS011;17386;43.846;25.950;2022-08-14T11:00:23;12.63;;;6.10;;
20629;SDS011;17386;43.846;25.950;2022-08-14T11:03:01;10.75;;;5.95;;
20629;SDS011;17386;43.846;25.950;2022-08-14T11:05:42;8.95;;;5.70;;
20629;SDS011;17386;43.846;25.950;2022-08-14T11:08:17;8.95;;;5.35;;
20629;SDS011;17386;43.846;25.950;2022-08-14T11:10:56;9.27;;;4.25;;
20629;SDS011;17386;43.846;25.950;2022-08-14T11:13:27;11.43;;;4.95;;
20629;SDS011;17386;43.846;25.950;2022-08-14T11:15:55;6.57;;;4.80;;
20629;SDS011;17386;43.846;25.950;2022-08-14T11:18:27;10.80;;;6.93;;
20629;SDS011;17386;43.846;25.950;2022-08-14T11:20:56;10.30;;;7.10;;
20629;SDS011;17386;43.846;25.950;2022-08-14T11:23:28;14.10;;;7.45;;
20629;SDS011;17386;43.846;25.950;2022-08-14T11:25:56;10.90;;;7.63;;
20629;SDS011;17386;43.846;25.950;2022-08-14T11:28:24;12.55;;;7.88;;
20629;SDS011;17386;43.846;25.950;2022-08-14T11:30:51;11.48;;;7.60;;
20629;SDS011;17386;43.846;25.950;2022-08-14T11:33:23;15.23;;;8.35;;
20629;SDS011;17386;43.846;25.950;2022-08-14T11:35:55;15.65;;;8.27;;
20629;SDS011;17386;43.846;25.950;2022-08-14T11:38:42;11.15;;;7.22;;
20629;SDS011;17386;43.846;25.950;2022-08-14T11:41:13;11.23;;;7.30;;
20629;SDS011;17386;43.846;25.950;2022-08-14T11:43:47;10.27;;;7.00;;
20629;SDS011;17386;43.846;25.950;2022-08-14T11:46:16;10.18;;;6.88;;
20629;SDS011;17386;43.846;25.950;2022-08-14T11:48:48;11.38;;;6.95;;
20629;SDS011;17386;43.846;25.950;2022-08-14T11:51:17;14.43;;;7.15;;
20629;SDS011;17386;43.846;25.950;2022-08-14T11:53:53;13.15;;;7.78;;
20629;SDS011;17386;43.846;25.950;2022-08-14T11:56:34;16.75;;;8.43;;
20629;SDS011;17386;43.846;25.950;2022-08-14T11:59:02;12.77;;;9.05;;
20629;SDS011;17386;43.846;25.950;2022-08-14T12:01:28;13.90;;;8.50;;
20629;SDS011;17386;43.846;25.950;2022-08-14T12:04:18;15.98;;;9.55;;
20629;SDS011;17386;43.846;25.950;2022-08-14T12:06:48;15.35;;;8.65;;
20629;SDS011;17386;43.846;25.950;2022-08-14T12:11:57;14.60;;;8.77;;
20629;SDS011;17386;43.846;25.950;2022-08-14T12:14:23;12.35;;;6.85;;
20629;SDS011;17386;43.846;25.950;2022-08-14T12:17:00;12.65;;;6.63;;
20629;SDS011;17386;43.846;25.950;2022-08-14T12:22:19;9.25;;;6.50;;
20629;SDS011;17386;43.846;25.950;2022-08-14T12:25:04;10.57;;;6.20;;
20629;SDS011;17386;43.846;25.950;2022-08-14T12:27:43;12.32;;;6.78;;
20629;SDS011;17386;43.846;25.950;2022-08-14T12:32:57;16.33;;;8.25;;
20629;SDS011;17386;43.846;25.950;2022-08-14T12:35:34;17.98;;;9.57;;
20629;SDS011;17386;43.846;25.950;2022-08-14T12:38:01;26.02;;;11.70;;
20629;SDS011;17386;43.846;25.950;2022-08-14T12:40:28;22.05;;;10.98;;
20629;SDS011;17386;43.846;25.950;2022-08-14T12:43:01;24.85;;;11.90;;
20629;SDS011;17386;43.846;25.950;2022-08-14T12:45:31;27.73;;;12.63;;
20629;SDS011;17386;43.846;25.950;2022-08-14T12:48:03;24.00;;;11.98;;
20629;SDS011;17386;43.846;25.950;2022-08-14T12:50:36;24.25;;;11.48;;
20629;SDS011;17386;43.846;25.950;2022-08-14T12:53:07;19.88;;;11.20;;
20629;SDS011;17386;43.846;25.950;2022-08-14T12:55:34;23.20;;;11.68;;
20629;SDS011;17386;43.846;25.950;2022-08-14T12:58:02;24.17;;;12.48;;
20629;SDS011;17386;43.846;25.950;2022-08-14T13:00:35;26.77;;;13.18;;
20629;SDS011;17386;43.846;25.950;2022-08-14T13:03:03;22.48;;;12.30;;
20629;SDS011;17386;43.846;25.950;2022-08-14T13:05:32;22.63;;;11.73;;
20629;SDS011;17386;43.846;25.950;2022-08-14T13:08:03;26.45;;;12.75;;
20629;SDS011;17386;43.846;25.950;2022-08-14T13:10:33;21.75;;;10.88;;
20629;SDS011;17386;43.846;25.950;2022-08-14T13:12:59;20.08;;;12.60;;
20629;SDS011;17386;43.846;25.950;2022-08-14T13:15:26;23.38;;;12.57;;
20629;SDS011;17386;43.846;25.950;2022-08-14T13:17:54;24.23;;;12.75;;
20629;SDS011;17386;43.846;25.950;2022-08-14T13:20:21;21.17;;;11.98;;
20629;SDS011;17386;43.846;25.950;2022-08-14T13:22:49;25.73;;;13.38;;
20629;SDS011;17386;43.846;25.950;2022-08-14T13:25:18;26.15;;;13.15;;
20629;SDS011;17386;43.846;25.950;2022-08-14T13:27:49;26.27;;;13.02;;
20629;SDS011;17386;43.846;25.950;2022-08-14T13:30:19;27.70;;;14.15;;
20629;SDS011;17386;43.846;25.950;2022-08-14T13:32:45;22.00;;;12.85;;
20629;SDS011;17386;43.846;25.950;2022-08-14T13:35:11;24.17;;;12.80;;
20629;SDS011;17386;43.846;25.950;2022-08-14T13:37:40;19.38;;;12.02;;
20629;SDS011;17386;43.846;25.950;2022-08-14T13:40:06;25.73;;;14.55;;
20629;SDS011;17386;43.846;25.950;2022-08-14T13:42:32;25.15;;;13.82;;
20629;SDS011;17386;43.846;25.950;2022-08-14T13:44:59;21.42;;;12.52;;
20629;SDS011;17386;43.846;25.950;2022-08-14T13:47:27;17.45;;;11.23;;
20629;SDS011;17386;43.846;25.950;2022-08-14T13:49:54;18.85;;;11.13;;
20629;SDS011;17386;43.846;25.950;2022-08-14T13:52:29;22.77;;;11.02;;
20629;SDS011;17386;43.846;25.950;2022-08-14T13:55:00;21.75;;;11.65;;
20629;SDS011;17386;43.846;25.950;2022-08-14T13:57:28;23.27;;;12.77;;
20629;SDS011;17386;43.846;25.950;2022-08-14T13:59:59;19.02;;;11.05;;
20629;SDS011;17386;43.846;25.950;2022-08-14T14:02:36;19.73;;;10.55;;
20629;SDS011;17386;43.846;25.950;2022-08-14T14:05:12;21.02;;;11.25;;
20629;SDS011;17386;43.846;25.950;2022-08-14T14:07:42;19.85;;;10.50;;
20629;SDS011;17386;43.846;25.950;2022-08-14T14:10:10;21.10;;;11.73;;
20629;SDS011;17386;43.846;25.950;2022-08-14T14:12:37;23.52;;;12.32;;
20629;SDS011;17386;43.846;25.950;2022-08-14T14:15:07;18.98;;;10.50;;
20629;SDS011;17386;43.846;25.950;2022-08-14T14:17:35;20.15;;;11.15;;
20629;SDS011;17386;43.846;25.950;2022-08-14T14:20:02;21.70;;;11.82;;
20629;SDS011;17386;43.846;25.950;2022-08-14T14:22:30;22.75;;;13.52;;
20629;SDS011;17386;43.846;25.950;2022-08-14T14:24:56;20.27;;;11.48;;
20629;SDS011;17386;43.846;25.950;2022-08-14T14:27:21;19.90;;;12.43;;
20629;SDS011;17386;43.846;25.950;2022-08-14T14:29:51;24.02;;;12.35;;
20629;SDS011;17386;43.846;25.950;2022-08-14T14:32:22;18.30;;;11.18;;
20629;SDS011;17386;43.846;25.950;2022-08-14T14:34:52;24.45;;;11.55;;
20629;SDS011;17386;43.846;25.950;2022-08-14T14:37:19;25.48;;;12.95;;
20629;SDS011;17386;43.846;25.950;2022-08-14T14:39:45;20.65;;;11.75;;
20629;SDS011;17386;43.846;25.950;2022-08-14T14:42:14;18.33;;;10.55;;
20629;SDS011;17386;43.846;25.950;2022-08-14T14:44:43;18.33;;;10.13;;
20629;SDS011;17386;43.846;25.950;2022-08-14T14:47:11;16.65;;;10.23;;
20629;SDS011;17386;43.846;25.950;2022-08-14T14:49:40;18.88;;;10.98;;
20629;SDS011;17386;43.846;25.950;2022-08-14T14:52:07;18.40;;;10.18;;
20629;SDS011;17386;43.846;25.950;2022-08-14T14:57:03;22.50;;;10.48;;
20629;SDS011;17386;43.846;25.950;2022-08-14T14:59:30;16.90;;;9.50;;